Currently 61°F in De Luz, California, USA
61°F
82°F / 58°F
2 mph S
0.00"
Thursday, June 21, 2018 8:43 PM PDT

De Luz, California Weather Summary
Last 36 Hours

Temperature Winds Hourly Humidity Dewpoint
Time Report Norm Report Norm Max Gusts Precip. Rpt. Norm Rpt. Norm Pressure
1Thu 08:43 PM  61.2°F  64°F  2 mph S  1 mph  6 mph  0.00"  91%  78%  58°F  57°F  29.88"
Thu 08:00 PM  63.2°F  66°F  2 mph SW  1 mph  8 mph  0.00"  85%  73%  58°F  57°F  29.88"
Thu 07:00 PM  68.3°F  71°F  3 mph S  2 mph  8 mph  0.00"  75%  64%  60°F  57°F  29.87"
Thu 06:00 PM  72.1°F  74°F  4 mph S  2 mph  13 mph  0.00"  67%  57%  60°F  57°F  29.88"
Thu 05:00 PM  76.0°F  77°F  2 mph S  3 mph  10 mph  0.00"  60%  50%  61°F  56°F  29.88"
Thu 04:00 PM  77.7°F  79°F  4 mph S  3 mph  15 mph  0.00"  57%  46%  61°F  56°F  29.89"
Thu 03:00 PM  80.5°F  81°F  4 mph SE  3 mph  12 mph  0.00"  54%  43%  62°F  56°F  29.89"
Thu 02:00 PM  81.4°F  81°F  5 mph SW  3 mph  12 mph  0.00"  51%  43%  61°F  56°F  29.89"
2Thu 01:27 PM  81.8°F  81°F  4 mph SE  3 mph  11 mph  ----  51%  43%  61°F  56°F  29.91"
Thu 01:01 PM  80.7°F  81°F  3 mph S  3 mph  8 mph  0.00"  53%  44%  61°F  56°F  29.91"
Thu 12:00 PM  76.7°F  79°F  3 mph SW  2 mph  9 mph  0.00"  59%  47%  61°F  56°F  29.92"
Thu 11:00 AM  72.7°F  76°F  2 mph S  2 mph  7 mph  0.00"  68%  54%  61°F  58°F  29.94"
Thu 10:00 AM  68.8°F  72°F  2 mph S  1 mph  6 mph  0.00"  78%  64%  61°F  59°F  29.91"
Thu 09:00 AM  63.1°F  67°F  calm  calm  2 mph  0.00"  97%  75%  62°F  59°F  29.92"
Thu 08:00 AM  59.8°F  63°F  calm  calm  none  0.00"  98%  83%  59°F  57°F  29.91"
Thu 07:00 AM  58.9°F  59°F  calm  calm  none  0.00"  97%  86%  58°F  55°F  29.90"
Thu 06:01 AM  58.3°F  59°F  calm  calm  none  0.00"  97%  85%  57°F  54°F  29.89"
3Thu 05:35 AM  58.3°F  59°F  calm  calm  none  ----  97%  85%  57°F  54°F  29.88"
Thu 05:01 AM  58.6°F  59°F  calm  calm  none  0.00"  96%  85%  57°F  54°F  29.90"
Thu 04:00 AM  58.7°F  59°F  calm  calm  none  0.00"  96%  86%  58°F  54°F  29.90"
Thu 03:00 AM  59.0°F  59°F  calm  calm  none  0.00"  96%  85%  58°F  55°F  29.89"
Thu 02:00 AM  59.2°F  60°F  calm  calm  none  0.00"  96%  84%  58°F  55°F  29.90"
Thu 01:00 AM  59.3°F  60°F  calm  calm  none  0.00"  95%  84%  58°F  55°F  29.91"
Thu 12:00 AM  59.6°F  60°F  calm  calm  none  0.00"  95%  84%  58°F  55°F  29.93"
Wed 11:00 PM  59.9°F  60°F  calm  calm  none  0.00"  94%  85%  58°F  55°F  29.92"
Wed 10:00 PM  60.1°F  61°F  calm  calm  2 mph  0.00"  94%  83%  58°F  56°F  29.93"
Wed 09:01 PM  60.4°F  63°F  1 mph S  1 mph  6 mph  0.00"  92%  80%  58°F  56°F  29.92"
Wed 08:00 PM  62.1°F  66°F  1 mph S  2 mph  6 mph  0.00"  87%  73%  58°F  57°F  29.90"
Wed 07:00 PM  65.6°F  70°F  2 mph S  2 mph  8 mph  0.00"  80%  64%  59°F  57°F  29.89"
Wed 06:00 PM  68.4°F  74°F  4 mph SE  2 mph  12 mph  0.00"  74%  57%  60°F  57°F  29.86"
Wed 05:00 PM  74.6°F  77°F  2 mph S  3 mph  11 mph  0.00"  62%  50%  60°F  56°F  29.88"
Wed 04:00 PM  77.2°F  79°F  5 mph SE  3 mph  12 mph  0.00"  58%  46%  61°F  56°F  29.87"
Wed 03:00 PM  79.4°F  80°F  4 mph S  4 mph  14 mph  0.00"  54%  44%  61°F  55°F  29.87"
Wed 02:00 PM  82.2°F  81°F  4 mph S  3 mph  11 mph  0.00"  49%  43%  61°F  56°F  29.87"
Wed 01:00 PM  80.5°F  81°F  1 mph NW  3 mph  6 mph  0.00"  51%  44%  60°F  56°F  29.88"
Wed 12:00 PM  75.4°F  79°F  calm  2 mph  3 mph  0.00"  61%  47%  61°F  56°F  29.91"
Wed 11:01 AM  67.3°F  76°F  calm  2 mph  7 mph  0.00"  77%  54%  60°F  57°F  29.91"
Wed 10:00 AM  59.3°F  71°F  1 mph SW  1 mph  4 mph  0.00"  96%  65%  58°F  58°F  29.93"
Wed 09:00 AM  58.0°F  67°F  1 mph S  calm  5 mph  0.00"  96%  76%  57°F  58°F  29.93"

  1. Current weather data. No green row appears if the current weather data is also the high or low for the current day.
  2. High temperature for the current day.
  3. Low temperature for the current day.

The De Luz, California weather pages are a service of WeatherCurrents. De Luz is located west of the Temecula Valley and north of Fallbrook, on the Santa Rosa Plateau, in southwestern Riverside County, California.
Copyright ©Thu Jun 21 20:44:31 PDT 2018  WeatherCurrents. All rights reserved. - Submit questions and comments - Privacy Policy

This page automatically refreshes every 10 minutes.